sensor_id;sensor_type;location;lat;lon;timestamp;temperature;humidity
73780;SHT30;62093;37.614;15.072;2024-02-14T00:01:40;17.06;58.11
73780;SHT30;62093;37.614;15.072;2024-02-14T00:04:06;17.07;58.38
73780;SHT30;62093;37.614;15.072;2024-02-14T00:06:36;17.08;57.83
73780;SHT30;62093;37.614;15.072;2024-02-14T00:09:02;17.04;57.89
73780;SHT30;62093;37.614;15.072;2024-02-14T00:11:28;17.06;58.38
73780;SHT30;62093;37.614;15.072;2024-02-14T00:13:55;17.03;57.89
73780;SHT30;62093;37.614;15.072;2024-02-14T00:16:22;17.03;57.93
73780;SHT30;62093;37.614;15.072;2024-02-14T00:18:48;17.07;58.42
73780;SHT30;62093;37.614;15.072;2024-02-14T00:21:14;17.08;58.83
73780;SHT30;62093;37.614;15.072;2024-02-14T00:23:40;17.04;58.27
73780;SHT30;62093;37.614;15.072;2024-02-14T00:26:06;17.01;58.33
73780;SHT30;62093;37.614;15.072;2024-02-14T00:28:32;17.06;58.03
73780;SHT30;62093;37.614;15.072;2024-02-14T00:30:58;16.99;58.47
73780;SHT30;62093;37.614;15.072;2024-02-14T00:33:24;16.99;58.39
73780;SHT30;62093;37.614;15.072;2024-02-14T00:35:50;16.99;58.52
73780;SHT30;62093;37.614;15.072;2024-02-14T00:38:15;16.94;58.44
73780;SHT30;62093;37.614;15.072;2024-02-14T00:40:41;16.95;58.38
73780;SHT30;62093;37.614;15.072;2024-02-14T00:43:07;16.99;58.44
73780;SHT30;62093;37.614;15.072;2024-02-14T00:45:34;17.00;57.72
73780;SHT30;62093;37.614;15.072;2024-02-14T00:48:01;17.00;58.47
73780;SHT30;62093;37.614;15.072;2024-02-14T00:50:29;17.01;58.47
73780;SHT30;62093;37.614;15.072;2024-02-14T00:52:55;17.00;58.35
73780;SHT30;62093;37.614;15.072;2024-02-14T00:55:21;16.95;58.48
73780;SHT30;62093;37.614;15.072;2024-02-14T00:57:47;16.94;58.50
73780;SHT30;62093;37.614;15.072;2024-02-14T01:00:13;16.94;58.33
73780;SHT30;62093;37.614;15.072;2024-02-14T01:02:39;16.93;57.99
73780;SHT30;62093;37.614;15.072;2024-02-14T01:05:06;16.95;58.44
73780;SHT30;62093;37.614;15.072;2024-02-14T01:07:31;16.94;58.57
73780;SHT30;62093;37.614;15.072;2024-02-14T01:09:57;16.95;58.49
73780;SHT30;62093;37.614;15.072;2024-02-14T01:12:23;16.94;58.50
73780;SHT30;62093;37.614;15.072;2024-02-14T01:14:49;16.91;57.98
73780;SHT30;62093;37.614;15.072;2024-02-14T01:17:15;16.88;57.73
73780;SHT30;62093;37.614;15.072;2024-02-14T01:19:41;16.88;57.85
73780;SHT30;62093;37.614;15.072;2024-02-14T01:22:07;16.93;58.58
73780;SHT30;62093;37.614;15.072;2024-02-14T01:24:34;16.91;58.04
73780;SHT30;62093;37.614;15.072;2024-02-14T01:27:00;16.88;58.20
73780;SHT30;62093;37.614;15.072;2024-02-14T01:29:26;16.87;58.32
73780;SHT30;62093;37.614;15.072;2024-02-14T01:31:52;16.83;58.12
73780;SHT30;62093;37.614;15.072;2024-02-14T01:34:18;16.87;58.32
73780;SHT30;62093;37.614;15.072;2024-02-14T01:36:44;16.85;58.01
73780;SHT30;62093;37.614;15.072;2024-02-14T01:39:10;16.85;58.07
73780;SHT30;62093;37.614;15.072;2024-02-14T01:41:37;16.84;58.74
73780;SHT30;62093;37.614;15.072;2024-02-14T01:44:04;16.81;58.51
73780;SHT30;62093;37.614;15.072;2024-02-14T01:46:30;16.83;58.58
73780;SHT30;62093;37.614;15.072;2024-02-14T01:48:56;16.83;58.63
73780;SHT30;62093;37.614;15.072;2024-02-14T01:51:23;16.79;58.20
73780;SHT30;62093;37.614;15.072;2024-02-14T01:53:54;16.80;58.11
73780;SHT30;62093;37.614;15.072;2024-02-14T01:56:20;16.80;58.27
73780;SHT30;62093;37.614;15.072;2024-02-14T01:58:46;16.76;57.52
73780;SHT30;62093;37.614;15.072;2024-02-14T02:01:12;16.80;58.80
73780;SHT30;62093;37.614;15.072;2024-02-14T02:03:39;16.76;57.82
73780;SHT30;62093;37.614;15.072;2024-02-14T02:06:06;16.76;58.67
73780;SHT30;62093;37.614;15.072;2024-02-14T02:08:32;16.76;57.98
73780;SHT30;62093;37.614;15.072;2024-02-14T02:10:58;16.74;58.57
73780;SHT30;62093;37.614;15.072;2024-02-14T02:13:24;16.70;58.00
73780;SHT30;62093;37.614;15.072;2024-02-14T02:15:52;16.72;58.28
73780;SHT30;62093;37.614;15.072;2024-02-14T02:18:19;16.70;58.39
73780;SHT30;62093;37.614;15.072;2024-02-14T02:20:45;16.67;58.88
73780;SHT30;62093;37.614;15.072;2024-02-14T02:23:12;16.67;58.43
73780;SHT30;62093;37.614;15.072;2024-02-14T02:25:44;16.66;58.05
73780;SHT30;62093;37.614;15.072;2024-02-14T02:28:10;16.67;58.49
73780;SHT30;62093;37.614;15.072;2024-02-14T02:30:36;16.69;58.51
73780;SHT30;62093;37.614;15.072;2024-02-14T02:33:03;16.67;58.24
73780;SHT30;62093;37.614;15.072;2024-02-14T02:35:29;16.67;58.01
73780;SHT30;62093;37.614;15.072;2024-02-14T02:37:55;16.69;58.09
73780;SHT30;62093;37.614;15.072;2024-02-14T02:40:22;16.66;58.20
73780;SHT30;62093;37.614;15.072;2024-02-14T02:42:48;16.62;57.48
73780;SHT30;62093;37.614;15.072;2024-02-14T02:45:17;16.60;58.15
73780;SHT30;62093;37.614;15.072;2024-02-14T02:47:43;16.56;58.27
73780;SHT30;62093;37.614;15.072;2024-02-14T02:50:09;16.57;58.03
73780;SHT30;62093;37.614;15.072;2024-02-14T02:52:35;16.56;58.15
73780;SHT30;62093;37.614;15.072;2024-02-14T02:55:01;16.59;58.24
73780;SHT30;62093;37.614;15.072;2024-02-14T02:57:28;16.60;58.10
73780;SHT30;62093;37.614;15.072;2024-02-14T02:59:55;16.57;57.92
73780;SHT30;62093;37.614;15.072;2024-02-14T03:02:21;16.56;58.12
73780;SHT30;62093;37.614;15.072;2024-02-14T03:04:46;16.53;57.85
73780;SHT30;62093;37.614;15.072;2024-02-14T03:07:12;16.53;58.22
73780;SHT30;62093;37.614;15.072;2024-02-14T03:09:39;16.55;58.32
73780;SHT30;62093;37.614;15.072;2024-02-14T03:12:05;16.52;57.85
73780;SHT30;62093;37.614;15.072;2024-02-14T03:14:31;16.53;58.26
73780;SHT30;62093;37.614;15.072;2024-02-14T03:17:02;16.52;58.25
73780;SHT30;62093;37.614;15.072;2024-02-14T03:19:28;16.46;58.29
73780;SHT30;62093;37.614;15.072;2024-02-14T03:21:56;16.49;58.40
73780;SHT30;62093;37.614;15.072;2024-02-14T03:24:23;16.49;58.17
73780;SHT30;62093;37.614;15.072;2024-02-14T03:26:52;16.45;58.24
73780;SHT30;62093;37.614;15.072;2024-02-14T03:29:20;16.51;58.67
73780;SHT30;62093;37.614;15.072;2024-02-14T03:31:47;16.51;58.80
73780;SHT30;62093;37.614;15.072;2024-02-14T03:34:13;16.48;58.59
73780;SHT30;62093;37.614;15.072;2024-02-14T03:36:39;16.46;58.68
73780;SHT30;62093;37.614;15.072;2024-02-14T03:39:05;16.46;58.05
73780;SHT30;62093;37.614;15.072;2024-02-14T03:41:32;16.46;58.16
73780;SHT30;62093;37.614;15.072;2024-02-14T03:43:58;16.45;58.50
73780;SHT30;62093;37.614;15.072;2024-02-14T03:46:29;16.42;58.39
73780;SHT30;62093;37.614;15.072;2024-02-14T03:48:55;16.43;58.31
73780;SHT30;62093;37.614;15.072;2024-02-14T03:51:23;16.43;57.92
73780;SHT30;62093;37.614;15.072;2024-02-14T03:53:49;16.42;58.15
73780;SHT30;62093;37.614;15.072;2024-02-14T03:56:15;16.41;58.05
73780;SHT30;62093;37.614;15.072;2024-02-14T03:58:42;16.43;58.15
73780;SHT30;62093;37.614;15.072;2024-02-14T04:01:08;16.39;58.59
73780;SHT30;62093;37.614;15.072;2024-02-14T04:03:34;16.39;58.49
73780;SHT30;62093;37.614;15.072;2024-02-14T04:06:00;16.33;58.34
73780;SHT30;62093;37.614;15.072;2024-02-14T04:08:26;16.36;58.26
73780;SHT30;62093;37.614;15.072;2024-02-14T04:10:52;16.35;58.55
73780;SHT30;62093;37.614;15.072;2024-02-14T04:13:21;16.35;58.70
73780;SHT30;62093;37.614;15.072;2024-02-14T04:15:47;16.32;58.33
73780;SHT30;62093;37.614;15.072;2024-02-14T04:18:14;16.30;58.07
73780;SHT30;62093;37.614;15.072;2024-02-14T04:20:44;16.32;58.24
73780;SHT30;62093;37.614;15.072;2024-02-14T04:23:10;16.30;58.50
73780;SHT30;62093;37.614;15.072;2024-02-14T04:25:36;16.28;58.37
73780;SHT30;62093;37.614;15.072;2024-02-14T04:28:03;16.30;58.22
73780;SHT30;62093;37.614;15.072;2024-02-14T04:30:29;16.30;58.67
73780;SHT30;62093;37.614;15.072;2024-02-14T04:32:55;16.25;57.94
73780;SHT30;62093;37.614;15.072;2024-02-14T04:35:21;16.28;58.95
73780;SHT30;62093;37.614;15.072;2024-02-14T04:37:47;16.29;58.49
73780;SHT30;62093;37.614;15.072;2024-02-14T04:40:15;16.25;58.26
73780;SHT30;62093;37.614;15.072;2024-02-14T04:42:41;16.22;58.11
73780;SHT30;62093;37.614;15.072;2024-02-14T04:45:08;16.16;58.22
73780;SHT30;62093;37.614;15.072;2024-02-14T04:47:34;16.23;57.91
73780;SHT30;62093;37.614;15.072;2024-02-14T04:50:00;16.22;58.63
73780;SHT30;62093;37.614;15.072;2024-02-14T04:52:26;16.22;58.01
73780;SHT30;62093;37.614;15.072;2024-02-14T04:54:52;16.23;58.12
73780;SHT30;62093;37.614;15.072;2024-02-14T04:57:18;16.16;58.39
73780;SHT30;62093;37.614;15.072;2024-02-14T04:59:45;16.16;58.89
73780;SHT30;62093;37.614;15.072;2024-02-14T05:02:11;16.18;58.14
73780;SHT30;62093;37.614;15.072;2024-02-14T05:04:37;16.16;58.18
73780;SHT30;62093;37.614;15.072;2024-02-14T05:07:05;16.19;58.68
73780;SHT30;62093;37.614;15.072;2024-02-14T05:09:31;16.16;58.10
73780;SHT30;62093;37.614;15.072;2024-02-14T05:11:56;16.16;58.20
73780;SHT30;62093;37.614;15.072;2024-02-14T05:14:23;16.18;58.36
73780;SHT30;62093;37.614;15.072;2024-02-14T05:16:49;16.16;58.16
73780;SHT30;62093;37.614;15.072;2024-02-14T05:19:15;16.13;58.03
73780;SHT30;62093;37.614;15.072;2024-02-14T05:21:41;16.13;57.72
73780;SHT30;62093;37.614;15.072;2024-02-14T05:24:07;16.16;58.80
73780;SHT30;62093;37.614;15.072;2024-02-14T05:26:34;16.15;58.21
73780;SHT30;62093;37.614;15.072;2024-02-14T05:29:00;16.13;58.21
73780;SHT30;62093;37.614;15.072;2024-02-14T05:31:42;16.09;58.53
73780;SHT30;62093;37.614;15.072;2024-02-14T05:34:08;16.11;57.94
73780;SHT30;62093;37.614;15.072;2024-02-14T05:36:36;16.12;58.05
73780;SHT30;62093;37.614;15.072;2024-02-14T05:39:04;16.11;58.31
73780;SHT30;62093;37.614;15.072;2024-02-14T05:41:31;16.08;58.29
73780;SHT30;62093;37.614;15.072;2024-02-14T05:43:59;16.11;58.55
73780;SHT30;62093;37.614;15.072;2024-02-14T05:46:24;16.09;58.16
73780;SHT30;62093;37.614;15.072;2024-02-14T05:48:51;16.09;58.12
73780;SHT30;62093;37.614;15.072;2024-02-14T05:51:18;16.05;58.26
73780;SHT30;62093;37.614;15.072;2024-02-14T05:53:44;16.02;58.02
73780;SHT30;62093;37.614;15.072;2024-02-14T05:56:10;16.09;58.74
73780;SHT30;62093;37.614;15.072;2024-02-14T05:58:36;16.08;58.46
73780;SHT30;62093;37.614;15.072;2024-02-14T06:01:02;16.08;58.17
73780;SHT30;62093;37.614;15.072;2024-02-14T06:03:28;16.05;58.13
73780;SHT30;62093;37.614;15.072;2024-02-14T06:05:54;16.06;58.66
73780;SHT30;62093;37.614;15.072;2024-02-14T06:08:20;16.05;58.64
73780;SHT30;62093;37.614;15.072;2024-02-14T06:10:46;16.06;58.76
73780;SHT30;62093;37.614;15.072;2024-02-14T06:13:13;16.05;58.29
73780;SHT30;62093;37.614;15.072;2024-02-14T06:15:39;16.08;58.44
73780;SHT30;62093;37.614;15.072;2024-02-14T06:18:05;16.05;58.43
73780;SHT30;62093;37.614;15.072;2024-02-14T06:20:32;16.04;58.33
73780;SHT30;62093;37.614;15.072;2024-02-14T06:22:58;16.02;58.01
73780;SHT30;62093;37.614;15.072;2024-02-14T06:25:24;16.04;58.65
73780;SHT30;62093;37.614;15.072;2024-02-14T06:27:50;16.08;58.44
73780;SHT30;62093;37.614;15.072;2024-02-14T06:30:15;16.09;57.64
73780;SHT30;62093;37.614;15.072;2024-02-14T06:32:43;16.11;57.43
73780;SHT30;62093;37.614;15.072;2024-02-14T06:35:09;16.08;57.57
73780;SHT30;62093;37.614;15.072;2024-02-14T06:37:35;16.11;57.84
73780;SHT30;62093;37.614;15.072;2024-02-14T06:40:01;16.08;57.73
73780;SHT30;62093;37.614;15.072;2024-02-14T06:42:27;16.11;58.08
73780;SHT30;62093;37.614;15.072;2024-02-14T06:44:53;16.08;58.73
73780;SHT30;62093;37.614;15.072;2024-02-14T06:47:19;16.08;57.80
73780;SHT30;62093;37.614;15.072;2024-02-14T06:49:44;16.12;58.22
73780;SHT30;62093;37.614;15.072;2024-02-14T06:52:10;16.11;58.07
73780;SHT30;62093;37.614;15.072;2024-02-14T06:54:36;16.09;57.76
73780;SHT30;62093;37.614;15.072;2024-02-14T06:57:02;16.13;57.59
73780;SHT30;62093;37.614;15.072;2024-02-14T06:59:28;16.09;58.02
73780;SHT30;62093;37.614;15.072;2024-02-14T07:01:54;16.13;57.61
73780;SHT30;62093;37.614;15.072;2024-02-14T07:04:21;16.15;58.37
73780;SHT30;62093;37.614;15.072;2024-02-14T07:06:53;16.16;58.17
73780;SHT30;62093;37.614;15.072;2024-02-14T07:09:18;16.15;57.61
73780;SHT30;62093;37.614;15.072;2024-02-14T07:11:44;16.15;58.10
73780;SHT30;62093;37.614;15.072;2024-02-14T07:14:11;16.16;58.54
73780;SHT30;62093;37.614;15.072;2024-02-14T07:16:37;16.15;58.13
73780;SHT30;62093;37.614;15.072;2024-02-14T07:19:03;16.15;58.31
73780;SHT30;62093;37.614;15.072;2024-02-14T07:21:29;16.16;58.17
73780;SHT30;62093;37.614;15.072;2024-02-14T07:23:55;16.19;58.42
73780;SHT30;62093;37.614;15.072;2024-02-14T07:26:21;16.18;58.65
73780;SHT30;62093;37.614;15.072;2024-02-14T07:28:46;16.19;58.55
73780;SHT30;62093;37.614;15.072;2024-02-14T07:31:12;16.22;58.70
73780;SHT30;62093;37.614;15.072;2024-02-14T07:33:38;16.22;58.62
73780;SHT30;62093;37.614;15.072;2024-02-14T07:36:04;16.25;58.84
73780;SHT30;62093;37.614;15.072;2024-02-14T07:38:30;16.22;58.09
73780;SHT30;62093;37.614;15.072;2024-02-14T07:40:56;16.23;58.58
73780;SHT30;62093;37.614;15.072;2024-02-14T07:43:23;16.19;58.58
73780;SHT30;62093;37.614;15.072;2024-02-14T07:45:49;16.23;58.22
73780;SHT30;62093;37.614;15.072;2024-02-14T07:48:15;16.25;58.53
73780;SHT30;62093;37.614;15.072;2024-02-14T07:50:41;16.25;58.45
73780;SHT30;62093;37.614;15.072;2024-02-14T07:53:07;16.26;58.61
73780;SHT30;62093;37.614;15.072;2024-02-14T07:55:33;16.26;58.61
73780;SHT30;62093;37.614;15.072;2024-02-14T07:57:59;16.26;58.83
73780;SHT30;62093;37.614;15.072;2024-02-14T08:00:25;16.25;58.07
73780;SHT30;62093;37.614;15.072;2024-02-14T08:02:51;16.29;58.49
73780;SHT30;62093;37.614;15.072;2024-02-14T08:05:17;16.28;58.52
73780;SHT30;62093;37.614;15.072;2024-02-14T08:07:46;16.28;57.88
73780;SHT30;62093;37.614;15.072;2024-02-14T08:10:13;16.25;58.39
73780;SHT30;62093;37.614;15.072;2024-02-14T08:12:39;16.29;57.35
73780;SHT30;62093;37.614;15.072;2024-02-14T08:15:05;16.26;58.17
73780;SHT30;62093;37.614;15.072;2024-02-14T08:17:32;16.29;58.32
73780;SHT30;62093;37.614;15.072;2024-02-14T08:19:59;16.28;57.80
73780;SHT30;62093;37.614;15.072;2024-02-14T08:22:25;16.32;58.11
73780;SHT30;62093;37.614;15.072;2024-02-14T08:24:52;16.28;58.06
73780;SHT30;62093;37.614;15.072;2024-02-14T08:27:18;16.33;58.18
73780;SHT30;62093;37.614;15.072;2024-02-14T08:29:44;16.35;58.29
73780;SHT30;62093;37.614;15.072;2024-02-14T08:32:10;16.32;57.98
73780;SHT30;62093;37.614;15.072;2024-02-14T08:34:36;16.30;57.69
73780;SHT30;62093;37.614;15.072;2024-02-14T08:37:02;16.33;58.13
73780;SHT30;62093;37.614;15.072;2024-02-14T08:39:28;16.30;57.62
73780;SHT30;62093;37.614;15.072;2024-02-14T08:41:54;16.32;57.77
73780;SHT30;62093;37.614;15.072;2024-02-14T08:44:20;16.33;57.63
73780;SHT30;62093;37.614;15.072;2024-02-14T08:46:46;16.32;57.73
73780;SHT30;62093;37.614;15.072;2024-02-14T08:49:13;16.36;58.20
73780;SHT30;62093;37.614;15.072;2024-02-14T08:51:39;16.35;57.68
73780;SHT30;62093;37.614;15.072;2024-02-14T08:54:05;16.32;57.73
73780;SHT30;62093;37.614;15.072;2024-02-14T08:56:32;16.36;57.80
73780;SHT30;62093;37.614;15.072;2024-02-14T08:59:02;16.33;57.83
73780;SHT30;62093;37.614;15.072;2024-02-14T09:01:29;16.38;57.91
73780;SHT30;62093;37.614;15.072;2024-02-14T09:03:55;16.36;57.77
73780;SHT30;62093;37.614;15.072;2024-02-14T09:06:21;16.38;57.65
73780;SHT30;62093;37.614;15.072;2024-02-14T09:08:48;16.43;57.35
73780;SHT30;62093;37.614;15.072;2024-02-14T09:11:18;16.55;57.46
73780;SHT30;62093;37.614;15.072;2024-02-14T09:13:44;16.57;57.41
73780;SHT30;62093;37.614;15.072;2024-02-14T09:16:13;16.57;57.61
73780;SHT30;62093;37.614;15.072;2024-02-14T09:18:41;16.63;57.43
73780;SHT30;62093;37.614;15.072;2024-02-14T09:21:08;16.59;57.45
73780;SHT30;62093;37.614;15.072;2024-02-14T09:23:34;16.60;58.37
73780;SHT30;62093;37.614;15.072;2024-02-14T09:26:00;16.60;58.31
73780;SHT30;62093;37.614;15.072;2024-02-14T09:28:27;16.62;57.69
73780;SHT30;62093;37.614;15.072;2024-02-14T09:30:53;16.62;58.00
73780;SHT30;62093;37.614;15.072;2024-02-14T09:33:20;16.59;57.56
73780;SHT30;62093;37.614;15.072;2024-02-14T09:35:46;16.62;57.63
73780;SHT30;62093;37.614;15.072;2024-02-14T09:38:13;16.63;56.58
73780;SHT30;62093;37.614;15.072;2024-02-14T09:40:42;16.67;57.21
73780;SHT30;62093;37.614;15.072;2024-02-14T09:45:51;16.67;56.43
73780;SHT30;62093;37.614;15.072;2024-02-14T09:48:19;16.66;56.92
73780;SHT30;62093;37.614;15.072;2024-02-14T09:50:45;16.69;56.04
73780;SHT30;62093;37.614;15.072;2024-02-14T09:53:14;16.70;56.37
73780;SHT30;62093;37.614;15.072;2024-02-14T09:55:41;16.66;55.07
73780;SHT30;62093;37.614;15.072;2024-02-14T09:58:07;16.66;56.12
73780;SHT30;62093;37.614;15.072;2024-02-14T10:00:34;16.76;56.34
73780;SHT30;62093;37.614;15.072;2024-02-14T10:03:00;16.77;54.88
73780;SHT30;62093;37.614;15.072;2024-02-14T10:05:26;16.80;55.20
73780;SHT30;62093;37.614;15.072;2024-02-14T10:07:56;16.88;55.02
73780;SHT30;62093;37.614;15.072;2024-02-14T10:10:23;17.00;54.87
73780;SHT30;62093;37.614;15.072;2024-02-14T10:12:49;17.08;54.58
73780;SHT30;62093;37.614;15.072;2024-02-14T10:15:15;17.25;54.34
73780;SHT30;62093;37.614;15.072;2024-02-14T10:17:41;17.39;53.90
73780;SHT30;62093;37.614;15.072;2024-02-14T10:20:08;17.55;53.52
73780;SHT30;62093;37.614;15.072;2024-02-14T10:22:35;17.69;52.76
73780;SHT30;62093;37.614;15.072;2024-02-14T10:25:03;17.85;52.59
73780;SHT30;62093;37.614;15.072;2024-02-14T10:27:32;17.96;51.96
73780;SHT30;62093;37.614;15.072;2024-02-14T10:29:59;18.02;52.15
73780;SHT30;62093;37.614;15.072;2024-02-14T10:32:25;18.13;51.15
73780;SHT30;62093;37.614;15.072;2024-02-14T10:34:51;18.20;51.29
73780;SHT30;62093;37.614;15.072;2024-02-14T10:37:18;18.24;51.03
73780;SHT30;62093;37.614;15.072;2024-02-14T10:39:47;18.27;50.98
73780;SHT30;62093;37.614;15.072;2024-02-14T10:42:18;18.34;50.44
73780;SHT30;62093;37.614;15.072;2024-02-14T10:44:44;18.29;50.79
73780;SHT30;62093;37.614;15.072;2024-02-14T10:47:19;18.30;50.68
73780;SHT30;62093;37.614;15.072;2024-02-14T10:49:48;18.32;50.84
73780;SHT30;62093;37.614;15.072;2024-02-14T10:52:15;18.33;51.11
73780;SHT30;62093;37.614;15.072;2024-02-14T10:54:43;18.29;50.91
73780;SHT30;62093;37.614;15.072;2024-02-14T10:57:13;18.26;50.99
73780;SHT30;62093;37.614;15.072;2024-02-14T10:59:44;18.24;51.07
73780;SHT30;62093;37.614;15.072;2024-02-14T11:02:11;18.23;51.40
73780;SHT30;62093;37.614;15.072;2024-02-14T11:04:37;18.23;51.65
73780;SHT30;62093;37.614;15.072;2024-02-14T11:07:09;18.38;50.98
73780;SHT30;62093;37.614;15.072;2024-02-14T11:09:39;18.29;51.76
73780;SHT30;62093;37.614;15.072;2024-02-14T11:12:11;18.17;51.88
73780;SHT30;62093;37.614;15.072;2024-02-14T11:14:43;18.09;52.01
73780;SHT30;62093;37.614;15.072;2024-02-14T11:17:14;18.06;51.64
73780;SHT30;62093;37.614;15.072;2024-02-14T11:19:43;18.07;51.67
73780;SHT30;62093;37.614;15.072;2024-02-14T11:22:11;18.07;52.37
73780;SHT30;62093;37.614;15.072;2024-02-14T11:24:39;18.09;52.02
73780;SHT30;62093;37.614;15.072;2024-02-14T11:27:17;18.13;51.32
73780;SHT30;62093;37.614;15.072;2024-02-14T11:29:52;18.09;51.61
73780;SHT30;62093;37.614;15.072;2024-02-14T11:32:18;18.10;51.74
73780;SHT30;62093;37.614;15.072;2024-02-14T11:34:54;18.16;51.66
73780;SHT30;62093;37.614;15.072;2024-02-14T11:37:30;18.20;51.61
73780;SHT30;62093;37.614;15.072;2024-02-14T11:39:57;18.22;51.30
73780;SHT30;62093;37.614;15.072;2024-02-14T11:42:24;18.24;51.18
73780;SHT30;62093;37.614;15.072;2024-02-14T11:44:50;18.29;50.97
73780;SHT30;62093;37.614;15.072;2024-02-14T11:47:16;18.30;50.61
73780;SHT30;62093;37.614;15.072;2024-02-14T11:49:42;18.36;50.36
73780;SHT30;62093;37.614;15.072;2024-02-14T11:52:11;18.34;50.11
73780;SHT30;62093;37.614;15.072;2024-02-14T11:54:38;18.41;49.99
73780;SHT30;62093;37.614;15.072;2024-02-14T11:57:04;18.45;49.83
73780;SHT30;62093;37.614;15.072;2024-02-14T11:59:34;18.47;49.67
73780;SHT30;62093;37.614;15.072;2024-02-14T12:02:06;18.45;50.24
73780;SHT30;62093;37.614;15.072;2024-02-14T12:04:32;18.55;49.44
73780;SHT30;62093;37.614;15.072;2024-02-14T12:06:59;18.57;49.41
73780;SHT30;62093;37.614;15.072;2024-02-14T12:09:26;18.54;50.37
73780;SHT30;62093;37.614;15.072;2024-02-14T12:11:54;18.58;50.17
73780;SHT30;62093;37.614;15.072;2024-02-14T12:14:22;18.60;50.52
73780;SHT30;62093;37.614;15.072;2024-02-14T12:16:56;18.54;50.77
73780;SHT30;62093;37.614;15.072;2024-02-14T12:19:25;18.47;51.32
73780;SHT30;62093;37.614;15.072;2024-02-14T12:21:52;18.45;51.41
73780;SHT30;62093;37.614;15.072;2024-02-14T12:24:18;18.45;51.26
73780;SHT30;62093;37.614;15.072;2024-02-14T12:26:44;18.44;51.30
73780;SHT30;62093;37.614;15.072;2024-02-14T12:29:11;18.50;51.88
73780;SHT30;62093;37.614;15.072;2024-02-14T12:31:38;18.51;51.74
73780;SHT30;62093;37.614;15.072;2024-02-14T12:34:04;18.57;51.53
73780;SHT30;62093;37.614;15.072;2024-02-14T12:36:33;18.57;51.72
73780;SHT30;62093;37.614;15.072;2024-02-14T12:39:01;18.61;51.93
73780;SHT30;62093;37.614;15.072;2024-02-14T12:41:30;18.65;51.80
73780;SHT30;62093;37.614;15.072;2024-02-14T12:43:56;18.67;51.49
73780;SHT30;62093;37.614;15.072;2024-02-14T12:46:22;18.69;51.60
73780;SHT30;62093;37.614;15.072;2024-02-14T12:48:48;18.74;51.50
73780;SHT30;62093;37.614;15.072;2024-02-14T12:51:14;18.76;51.50
73780;SHT30;62093;37.614;15.072;2024-02-14T12:53:40;18.79;51.31
73780;SHT30;62093;37.614;15.072;2024-02-14T12:56:07;18.79;51.77
73780;SHT30;62093;37.614;15.072;2024-02-14T12:58:33;18.84;52.14
73780;SHT30;62093;37.614;15.072;2024-02-14T13:01:00;18.85;51.48
73780;SHT30;62093;37.614;15.072;2024-02-14T13:03:27;18.88;51.31
73780;SHT30;62093;37.614;15.072;2024-02-14T13:05:54;18.91;51.46
73780;SHT30;62093;37.614;15.072;2024-02-14T13:08:20;18.89;51.28
73780;SHT30;62093;37.614;15.072;2024-02-14T13:10:47;18.95;51.97
73780;SHT30;62093;37.614;15.072;2024-02-14T13:13:13;18.98;51.16
73780;SHT30;62093;37.614;15.072;2024-02-14T13:15:40;18.98;50.51
73780;SHT30;62093;37.614;15.072;2024-02-14T13:18:07;19.15;51.02
73780;SHT30;62093;37.614;15.072;2024-02-14T13:20:33;19.15;50.83
73780;SHT30;62093;37.614;15.072;2024-02-14T13:22:59;19.09;50.98
73780;SHT30;62093;37.614;15.072;2024-02-14T13:25:25;19.11;51.11
73780;SHT30;62093;37.614;15.072;2024-02-14T13:27:51;19.06;51.26
73780;SHT30;62093;37.614;15.072;2024-02-14T13:30:17;19.05;51.15
73780;SHT30;62093;37.614;15.072;2024-02-14T13:32:44;19.04;50.98
73780;SHT30;62093;37.614;15.072;2024-02-14T13:35:10;19.01;51.28
73780;SHT30;62093;37.614;15.072;2024-02-14T13:37:39;18.99;51.06
73780;SHT30;62093;37.614;15.072;2024-02-14T13:40:06;18.98;51.33
73780;SHT30;62093;37.614;15.072;2024-02-14T13:42:37;18.94;51.34
73780;SHT30;62093;37.614;15.072;2024-02-14T13:45:07;18.94;51.44
73780;SHT30;62093;37.614;15.072;2024-02-14T13:47:39;18.92;51.36
73780;SHT30;62093;37.614;15.072;2024-02-14T13:50:07;18.89;51.26
73780;SHT30;62093;37.614;15.072;2024-02-14T13:52:34;18.89;51.71
73780;SHT30;62093;37.614;15.072;2024-02-14T13:55:02;18.87;51.74
73780;SHT30;62093;37.614;15.072;2024-02-14T13:57:28;18.91;51.60
73780;SHT30;62093;37.614;15.072;2024-02-14T13:59:55;18.92;51.60
73780;SHT30;62093;37.614;15.072;2024-02-14T14:02:22;18.94;51.48
73780;SHT30;62093;37.614;15.072;2024-02-14T14:04:48;18.99;51.45
73780;SHT30;62093;37.614;15.072;2024-02-14T14:07:14;19.05;51.49
73780;SHT30;62093;37.614;15.072;2024-02-14T14:09:40;19.11;51.34
73780;SHT30;62093;37.614;15.072;2024-02-14T14:12:06;19.15;51.31
73780;SHT30;62093;37.614;15.072;2024-02-14T14:14:32;19.18;51.42
73780;SHT30;62093;37.614;15.072;2024-02-14T14:16:58;19.16;51.03
73780;SHT30;62093;37.614;15.072;2024-02-14T14:19:24;19.11;51.45
73780;SHT30;62093;37.614;15.072;2024-02-14T14:21:50;19.09;51.41
73780;SHT30;62093;37.614;15.072;2024-02-14T14:24:16;19.09;51.37
73780;SHT30;62093;37.614;15.072;2024-02-14T14:26:42;19.09;51.47
73780;SHT30;62093;37.614;15.072;2024-02-14T14:29:09;19.11;51.49
73780;SHT30;62093;37.614;15.072;2024-02-14T14:31:35;19.09;51.45
73780;SHT30;62093;37.614;15.072;2024-02-14T14:34:01;19.08;51.54
73780;SHT30;62093;37.614;15.072;2024-02-14T14:36:27;19.08;51.43
73780;SHT30;62093;37.614;15.072;2024-02-14T14:38:53;19.08;51.38
73780;SHT30;62093;37.614;15.072;2024-02-14T14:41:23;19.09;51.50
73780;SHT30;62093;37.614;15.072;2024-02-14T14:43:49;19.12;51.45
73780;SHT30;62093;37.614;15.072;2024-02-14T14:46:15;19.11;51.46
73780;SHT30;62093;37.614;15.072;2024-02-14T14:48:41;19.22;51.01
73780;SHT30;62093;37.614;15.072;2024-02-14T14:51:07;19.20;50.54
73780;SHT30;62093;37.614;15.072;2024-02-14T14:53:34;19.18;50.87
73780;SHT30;62093;37.614;15.072;2024-02-14T14:56:01;19.23;50.93
73780;SHT30;62093;37.614;15.072;2024-02-14T14:58:27;19.25;50.16
73780;SHT30;62093;37.614;15.072;2024-02-14T15:00:56;19.27;50.39
73780;SHT30;62093;37.614;15.072;2024-02-14T15:03:25;19.30;50.38
73780;SHT30;62093;37.614;15.072;2024-02-14T15:05:51;19.36;50.25
73780;SHT30;62093;37.614;15.072;2024-02-14T15:08:18;19.36;50.38
73780;SHT30;62093;37.614;15.072;2024-02-14T15:10:54;19.37;49.84
73780;SHT30;62093;37.614;15.072;2024-02-14T15:13:24;19.35;49.66
73780;SHT30;62093;37.614;15.072;2024-02-14T15:15:50;19.37;49.60